Terminal Aerodrome Forecast
Issued by NWS

Home | Current Version | Previous Version | Text Only | Print | Product List | Glossary On
Versions: 1 2 3 4 5 6 7 8 9 10 11 12 13 14 15
000
FTUS43 KGRB 271721
TAFATW
TAF
KATW 271721Z 2718/2818 23007KT P6SM SCT030 SCT070
     FM280000 23004KT P6SM VCSH BKN060
     FM280900 VRB03KT P6SM VCSH OVC045
     FM281300 35004KT P6SM -SHRA OVC035
      TEMPO 2814/2818 4SM -SHRA OVC024=

USA.gov is the U.S. government's official web portal to all federal, state and local government web resources and services.